Terminal Aerodrome Forecast
Issued by NWS Twin Cities, MN

Home | Current Version | Previous Version | Graphics & Text | Print | Product List | Glossary On
Versions: 1 2 3 4 5 6 7 8 9 10 11 12 13 14 15 16 17
000
FTUS43 KMPX 182300
TAFSTC
TAF
KSTC 182334Z 1900/1924 25007KT P6SM -SHRA VCTS SCT050CB BKN100
     FM190200 30004KT P6SM SCT050 SCT150
     FM190900 31003KT 6SM BR SCT015 SCT200
     FM191500 32007KT P6SM SCT200=

USA.gov is the U.S. government's official web portal to all federal, state and local government web resources and services.